الصفحة الرئيسية
METAR-TAF:

METAR-TAF

مطار :

مطار ميتشيل رومان الدولي

كورور, Babeldaob, بالاو

دائرة عرض: 07-22N, خط طول: 134-32E, ارتفاع: 54 متر

مراقبة الطقس الحالي

تاريخ ووقت الإصدار 1ساعة و 49 دقيقة قبل الساعة 17:50UTC
ريح 3 عقدة من الشمال الشرقي
درجة الحرارة 25°درجة مئوية
الرطوبة 94%
ضغط 1013 hPa
الرؤية: 22.5 كم
غيوم متفرقة على ارتفاع 1500 قدم
غيوم مفككة على ارتفاع 29000 قدم

METAR: PTRO 291750Z 04003KT 14SM SCT015 BKN290 25/24 A2991

زمن: 04:39 (19:39 UTC)

توقعات

تاريخ ووقت الإصدار 1ساعة و 51 دقيقة قبل الساعة 17:48UTC
التوقعات صالحة من29 الساعة 18 UTC إلى 30 الساعة 18 UTC
ريح 4 عقدةمن اتجاهات متغيرة
الرؤية: 10 كم
غيوم متفرقة على ارتفاع 1800 قدم
غيوم متفرقة على ارتفاع 14000 قدم
من 30 الساعة 0200 UTC
ريح 7 عقدة من الشمال الشرقي
الرؤية: 10 كم
غيوم متفرقة على ارتفاع 1600 قدم
غيوم متفرقة على ارتفاع 12000 قدم
زخات في الجوار
مؤقت
من 30 الساعة 02 UTC إلى 30 الساعة 06 UTC
غيوم مفككة على ارتفاع 1600 قدم
زخات من الأمطار الخفيفة

TAF: PTRO 291748Z 2918/3018 VRB04KT P6SM SCT018 SCT140 FM300200 05007KT P6SM VCSH SCT016 SCT120 TEMPO 3002/3006 -SHRA BKN016

أرصاد الطقس والتوقعات من أكثر من 4000 مطار (تقارير الطقس للمطار METAR والتنبؤ بالطقس بالمطارTAF).

المحطات المتاحة هي النقط الصفراء والحمراء على الخريطة.

حرك المؤشر فوق النقطة لمعرفة اسم المحطة.

ثم انقر لمعرفة أرصاد وتوقعات الطقس.

لتغيير الخارطة: اضغط على الأزرار الخضراء مع رمز الصليب الأسود للتكبير. على الزر الأخضر مع شرطة للتصغير، أو على الأسهم الخضراء للخرائط المجاورة.


METAR-TAF: